Time;durP1;ratioP1;P1;durP2;ratioP2;P2;SDS_P1;SDS_P2;PMS_P1;PMS_P2;Temp;Humidity;BMP_temperature;BMP_pressure;BME280_temperature;BME280_humidity;BME280_pressure;Samples;Min_cycle;Max_cycle;Signal;HPM_P1;HPM_P2
2022/01/31 00:00:35;;;;;;;2.10;1.13;;;;;;;-0.27;43.26;99917.50;5063270;28;20025;-68
2022/01/31 00:03:02;;;;;;;3.22;1.35;;;;;;;-0.28;43.38;99915.78;5045013;28;20028;-67
2022/01/31 00:05:28;;;;;;;2.13;1.00;;;;;;;-0.30;43.31;99902.13;5063032;28;20085;-68
2022/01/31 00:07:53;;;;;;;4.32;0.90;;;;;;;-0.33;43.50;99903.69;5062865;28;20049;-68
2022/01/31 00:10:27;;;;;;;2.45;0.90;;;;;;;-0.35;43.33;99898.56;5063083;28;20026;-68
2022/01/31 00:12:59;;;;;;;2.17;0.98;;;;;;;-0.41;43.39;99881.41;5062987;28;20025;-68
2022/01/31 00:15:25;;;;;;;4.07;1.23;;;;;;;-0.45;43.45;99873.63;5063098;28;20021;-68
2022/01/31 00:17:50;;;;;;;5.28;1.08;;;;;;;-0.38;43.50;99883.16;5062975;28;20021;-69
2022/01/31 00:20:16;;;;;;;2.20;1.48;;;;;;;-0.41;43.49;99883.97;5063022;28;20032;-69
2022/01/31 00:22:41;;;;;;;2.65;0.90;;;;;;;-0.42;43.52;99891.56;5063000;28;20028;-69
2022/01/31 00:25:07;;;;;;;3.80;0.90;;;;;;;-0.47;43.60;99894.00;5044816;28;20031;-68
2022/01/31 00:27:33;;;;;;;4.65;1.10;;;;;;;-0.45;43.65;99892.34;5062779;28;20044;-68
2022/01/31 00:29:58;;;;;;;1.80;0.93;;;;;;;-0.46;43.70;99884.66;5044867;28;20040;-68
2022/01/31 00:32:23;;;;;;;2.13;1.92;;;;;;;-0.57;43.81;99857.16;5062759;28;20021;-69
2022/01/31 00:34:49;;;;;;;3.88;0.80;;;;;;;-0.46;43.67;99877.84;5062688;28;20033;-68
2022/01/31 00:37:14;;;;;;;2.72;1.05;;;;;;;-0.53;43.92;99858.97;5062376;28;20116;-68
2022/01/31 00:39:39;;;;;;;3.50;0.93;;;;;;;-0.53;43.71;99874.25;5065802;28;20021;-68
2022/01/31 00:42:07;;;;;;;3.85;1.15;;;;;;;-0.48;43.98;99886.31;5066709;28;20045;-68
2022/01/31 00:44:49;;;;;;;4.95;1.13;;;;;;;-0.48;43.89;99883.75;5048666;28;20037;-68
2022/01/31 00:47:21;;;;;;;7.50;1.30;;;;;;;-0.45;43.90;99876.19;5066473;28;20016;-68
2022/01/31 00:50:03;;;;;;;;;;;;;;;-0.43;43.96;99869.44;5066991;28;20074;-68
2022/01/31 00:52:28;;;;;;;4.90;1.20;;;;;;;-0.43;43.97;99862.63;5066336;28;20163;-68
2022/01/31 00:54:53;;;;;;;4.85;1.13;;;;;;;-0.42;44.01;99856.75;5066151;28;20029;-69
2022/01/31 00:57:19;;;;;;;3.42;0.98;;;;;;;-0.42;44.02;99864.38;5066185;28;20021;-69
2022/01/31 00:59:44;;;;;;;4.28;1.20;;;;;;;-0.41;44.15;99860.13;5066126;28;20075;-68
2022/01/31 01:02:09;;;;;;;1.75;0.90;;;;;;;-0.43;44.04;99851.59;5066277;28;20032;-68
2022/01/31 01:04:35;;;;;;;3.47;1.30;;;;;;;-0.53;44.14;99837.72;5066103;28;20051;-68
2022/01/31 01:07:00;;;;;;;1.92;1.30;;;;;;;-0.43;44.24;99844.78;5066203;28;20104;-68
2022/01/31 01:09:26;;;;;;;1.85;1.13;;;;;;;-0.42;44.24;99835.47;5065863;28;20017;-67
2022/01/31 01:11:51;;;;;;;1.52;0.77;;;;;;;-0.37;44.04;99839.00;5066076;28;20055;-67
2022/01/31 01:14:17;;;;;;;1.88;0.88;;;;;;;-0.41;44.33;99832.06;5065963;28;20025;-69
2022/01/31 01:16:42;;;;;;;4.78;1.05;;;;;;;-0.41;44.45;99835.50;5066113;28;20029;-68
2022/01/31 01:19:07;;;;;;;1.48;0.90;;;;;;;-0.38;44.30;99827.06;5065679;28;20086;-68
2022/01/31 01:21:33;;;;;;;2.70;1.15;;;;;;;-0.39;44.40;99820.25;5065849;28;20036;-68
2022/01/31 01:23:58;;;;;;;2.88;1.40;;;;;;;-0.52;44.48;99799.50;5047683;28;20033;-68
2022/01/31 01:26:24;;;;;;;2.15;1.20;;;;;;;-0.40;44.42;99823.63;5047897;28;20081;-67
2022/01/31 01:28:49;;;;;;;3.33;1.10;;;;;;;-0.43;44.61;99818.44;5065629;28;20171;-68
2022/01/31 01:31:15;;;;;;;3.08;1.23;;;;;;;-0.45;44.65;99820.94;5047526;28;20021;-68
2022/01/31 01:33:41;;;;;;;2.22;0.88;;;;;;;-0.57;44.64;99795.97;5065618;28;20027;-69
2022/01/31 01:36:07;;;;;;;1.50;0.90;;;;;;;-0.50;44.79;99805.50;5047715;28;20059;-69
2022/01/31 01:38:34;;;;;;;3.58;1.10;;;;;;;-0.52;44.71;99802.06;5065179;28;20047;-69
2022/01/31 01:41:00;;;;;;;4.35;1.50;;;;;;;-0.65;44.89;99793.22;5065370;28;20023;-69
2022/01/31 01:43:29;;;;;;;2.15;0.80;;;;;;;-0.57;44.90;99802.75;5065497;28;20043;-69
2022/01/31 01:45:55;;;;;;;5.28;1.90;;;;;;;-0.58;44.76;99799.34;5047450;28;20039;-69
2022/01/31 01:48:21;;;;;;;2.80;1.20;;;;;;;-0.66;44.86;99785.53;5065436;28;20021;-69
2022/01/31 01:50:47;;;;;;;2.67;1.05;;;;;;;-0.61;45.06;99801.81;5064487;28;20025;-69
2022/01/31 01:53:13;;;;;;;3.92;1.25;;;;;;;-0.65;44.96;99794.88;5065294;28;20021;-68
2022/01/31 01:55:39;;;;;;;4.47;1.10;;;;;;;-0.69;45.12;99791.41;5065289;28;20044;-68
2022/01/31 01:58:13;;;;;;;4.38;1.20;;;;;;;-0.70;45.17;99792.22;5065100;28;20021;-68
2022/01/31 02:03:38;;;;;;;4.65;1.15;;;;;;;-0.80;45.36;99770.69;5032875;28;20041;-69
2022/01/31 02:06:06;;;;;;;1.38;0.82;;;;;;;-0.84;45.38;99763.78;5065482;28;20024;-69
2022/01/31 02:08:42;;;;;;;1.45;1.10;;;;;;;-0.73;45.49;99781.94;5065202;28;20025;-67
2022/01/31 02:11:10;;;;;;;5.40;1.33;;;;;;;-0.76;45.37;99781.84;5065445;28;20113;-68
2022/01/31 02:13:36;;;;;;;3.45;1.00;;;;;;;-0.78;45.53;99776.72;5065104;28;20110;-69
2022/01/31 02:16:03;;;;;;;4.90;1.25;;;;;;;-0.78;45.46;99768.19;5065243;28;20035;-69
2022/01/31 02:18:30;;;;;;;5.70;1.63;;;;;;;-0.82;45.63;99766.38;5064750;28;20021;-70
2022/01/31 02:20:56;;;;;;;3.45;1.10;;;;;;;-0.84;45.69;99770.56;5064778;28;20044;-69
2022/01/31 02:23:22;;;;;;;2.38;1.27;;;;;;;-0.85;45.81;99771.41;5064511;28;20020;-68
2022/01/31 02:25:51;;;;;;;2.95;1.20;;;;;;;-0.85;45.76;99763.75;5064909;28;20027;-67
2022/01/31 02:28:17;;;;;;;4.60;1.20;;;;;;;-0.89;45.75;99752.59;5064736;28;20025;-68
2022/01/31 02:30:42;;;;;;;2.42;1.23;;;;;;;-0.92;45.86;99755.06;5064192;28;20055;-68
2022/01/31 02:33:09;;;;;;;5.03;1.17;;;;;;;-0.93;46.05;99748.25;5064448;28;20029;-68
2022/01/31 02:35:35;;;;;;;3.80;1.27;;;;;;;-1.03;45.76;99731.84;5064451;28;20036;-68
2022/01/31 02:38:00;;;;;;;2.80;1.10;;;;;;;-1.10;46.00;99723.16;5063988;28;20037;-68
2022/01/31 02:40:26;;;;;;;4.45;1.20;;;;;;;-1.05;46.03;99731.78;5064291;28;20055;-68
2022/01/31 02:42:52;;;;;;;5.57;1.20;;;;;;;-1.10;46.17;99719.75;5064272;28;20028;-67
2022/01/31 02:45:17;;;;;;;1.85;0.90;;;;;;;-1.14;46.06;99714.59;5064229;28;20052;-68
2022/01/31 02:47:50;;;;;;;6.60;1.52;;;;;;;-1.09;46.18;99724.91;5064240;28;20053;-67
2022/01/31 02:50:15;;;;;;;3.72;1.25;;;;;;;-1.13;46.21;99712.88;5064016;28;20078;-67
2022/01/31 02:52:46;;;;;;;2.75;1.15;;;;;;;-1.16;46.49;99712.78;5063999;28;20092;-67
2022/01/31 02:55:12;;;;;;;1.80;1.08;;;;;;;-1.26;46.64;99689.59;5063988;28;20031;-68
2022/01/31 02:57:37;;;;;;;4.35;1.08;;;;;;;-1.18;46.81;99707.66;5063818;28;20458;-68
2022/01/31 03:00:04;;;;;;;1.48;1.20;;;;;;;-1.22;46.88;99699.88;5063717;28;20489;-68
2022/01/31 03:02:29;;;;;;;4.63;1.15;;;;;;;-1.33;47.09;99685.19;5063731;28;20017;-68
2022/01/31 03:04:55;;;;;;;3.45;1.00;;;;;;;-1.30;47.31;99682.72;5063846;28;20497;-68
2022/01/31 03:07:20;;;;;;;3.67;1.40;;;;;;;-1.39;47.38;99668.03;5045670;28;20036;-68
2022/01/31 03:09:45;;;;;;;6.88;1.20;;;;;;;-1.29;47.49;99673.38;5045431;28;20025;-68
2022/01/31 03:12:13;;;;;;;4.70;1.13;;;;;;;-1.31;47.49;99664.84;5063665;28;20032;-68
2022/01/31 03:14:41;;;;;;;2.83;1.13;;;;;;;-1.43;47.46;99652.63;5063484;28;20031;-68
2022/01/31 03:17:07;;;;;;;1.85;1.10;;;;;;;-1.39;47.64;99664.63;5063273;28;20020;-68
2022/01/31 03:19:32;;;;;;;3.65;1.00;;;;;;;-1.47;47.71;99661.84;5045367;28;20051;-67
2022/01/31 03:21:57;;;;;;;2.85;1.20;;;;;;;-1.43;48.03;99661.13;5063289;28;20029;-67
2022/01/31 03:24:23;;;;;;;2.20;0.98;;;;;;;-1.42;48.43;99655.19;5063229;28;20031;-67
2022/01/31 03:26:48;;;;;;;4.88;1.20;;;;;;;-1.52;48.50;99632.88;5063434;28;20040;-67
2022/01/31 03:29:13;;;;;;;5.35;1.33;;;;;;;-1.49;48.67;99645.69;5063242;28;20551;-67
2022/01/31 03:31:40;;;;;;;0.60;0.60;;;;;;;-1.38;48.82;99654.50;5063332;28;20045;-67
2022/01/31 03:34:05;;;;;;;2.83;1.17;;;;;;;-1.39;49.25;99645.09;5063183;28;20035;-69
2022/01/31 03:36:31;;;;;;;5.30;1.10;;;;;;;-1.41;49.46;99631.50;5045117;28;20020;-68
2022/01/31 03:38:56;;;;;;;1.27;0.80;;;;;;;-1.35;49.45;99635.88;5062877;28;20093;-68
2022/01/31 03:41:23;;;;;;;2.03;1.15;;;;;;;-1.36;49.58;99629.06;5063057;28;20053;-67
2022/01/31 03:43:49;;;;;;;1.92;0.90;;;;;;;-1.40;49.66;99622.16;5063104;28;20432;-68
2022/01/31 03:46:14;;;;;;;3.88;1.30;;;;;;;-1.37;49.48;99635.84;5044885;28;20497;-68
2022/01/31 03:48:41;;;;;;;2.10;1.10;;;;;;;-1.39;49.48;99632.38;5062954;28;20162;-68
2022/01/31 03:51:06;;;;;;;1.65;0.90;;;;;;;-1.45;49.74;99622.03;5063012;28;20028;-68
2022/01/31 03:53:32;;;;;;;0.75;0.75;;;;;;;-1.35;49.83;99640.97;5062966;28;20021;-68
2022/01/31 03:55:57;;;;;;;0.60;0.60;;;;;;;-1.32;49.81;99641.06;5063101;28;20040;-69
2022/01/31 03:58:23;;;;;;;2.67;1.00;;;;;;;-1.44;49.80;99626.31;5062882;28;20094;-68
2022/01/31 04:00:49;;;;;;;2.25;0.85;;;;;;;-1.39;50.02;99624.72;5062902;28;20032;-68
2022/01/31 04:03:14;;;;;;;5.68;0.88;;;;;;;-1.39;50.02;99622.19;5044949;28;20016;-68
2022/01/31 04:05:40;;;;;;;4.32;1.10;;;;;;;-1.45;49.96;99599.09;5062832;28;20061;-68
2022/01/31 04:08:07;;;;;;;3.15;1.88;;;;;;;-1.35;49.94;99615.50;5062679;28;20021;-68
2022/01/31 04:10:33;;;;;;;3.75;1.30;;;;;;;-1.37;49.92;99617.13;5062808;28;20021;-68
2022/01/31 04:12:58;;;;;;;3.00;1.10;;;;;;;-1.48;49.74;99587.97;5063633;28;20355;-69
2022/01/31 04:15:23;;;;;;;1.15;0.85;;;;;;;-1.29;50.08;99604.59;5067002;28;20035;-68
2022/01/31 04:17:49;;;;;;;1.70;0.95;;;;;;;-1.31;50.08;99596.94;5048827;28;20017;-69
2022/01/31 04:20:16;;;;;;;1.77;0.95;;;;;;;-1.31;50.24;99596.09;5066844;28;20100;-69
2022/01/31 04:23:08;;;;;;;4.60;1.13;;;;;;;-1.30;50.18;99598.66;5067152;28;20110;-69
2022/01/31 04:25:29;;;;;;;3.38;1.10;;;;;;;-1.32;50.39;99590.13;5066167;28;20041;-68
2022/01/31 04:28:04;;;;;;;2.92;1.00;;;;;;;-1.33;50.42;99587.53;5066614;28;20025;-68
2022/01/31 04:30:37;;;;;;;3.17;1.67;;;;;;;-1.36;50.24;99578.13;5066626;28;20021;-69
2022/01/31 04:33:04;;;;;;;2.58;1.10;;;;;;;-1.40;50.31;99571.22;5048476;28;20025;-69
2022/01/31 04:35:29;;;;;;;2.08;0.90;;;;;;;-1.31;50.34;99581.66;5066653;28;20036;-68
2022/01/31 04:37:58;;;;;;;4.40;1.00;;;;;;;-1.41;50.42;99575.47;5065989;28;20106;-68
2022/01/31 04:40:23;;;;;;;3.20;1.13;;;;;;;-1.43;50.45;99572.00;5066291;28;20028;-67
2022/01/31 04:42:48;;;;;;;1.42;0.80;;;;;;;-1.35;50.48;99582.41;5066537;28;20445;-67
2022/01/31 04:45:14;;;;;;;6.95;1.25;;;;;;;-1.37;50.70;99578.94;5066484;28;20017;-67
2022/01/31 04:47:39;;;;;;;2.13;0.70;;;;;;;-1.41;50.78;99579.69;5066443;28;20048;-67
2022/01/31 04:50:07;;;;;;;1.77;1.00;;;;;;;-1.37;50.84;99576.38;5048046;28;20096;-68
2022/01/31 04:52:32;;;;;;;3.35;1.00;;;;;;;-1.42;50.95;99572.88;5066320;28;20469;-68
2022/01/31 04:54:57;;;;;;;3.95;1.08;;;;;;;-1.46;51.03;99581.25;5066239;28;20028;-68
2022/01/31 04:57:23;;;;;;;3.70;1.25;;;;;;;-1.48;51.24;99570.13;5066128;28;20056;-67
2022/01/31 04:59:50;;;;;;;5.57;1.38;;;;;;;-1.63;51.24;99548.56;5066013;28;20032;-67
2022/01/31 05:02:15;;;;;;;2.03;0.93;;;;;;;-1.56;51.43;99563.16;5047877;28;20031;-68
2022/01/31 05:04:41;;;;;;;4.65;1.38;;;;;;;-1.54;51.46;99565.75;5065989;28;20024;-68
2022/01/31 05:07:06;;;;;;;2.15;0.90;;;;;;;-1.71;51.54;99550.03;5066054;28;20025;-67
2022/01/31 05:09:32;;;;;;;4.00;1.20;;;;;;;-1.64;51.63;99559.53;5065449;28;20021;-68
2022/01/31 05:11:57;;;;;;;3.25;1.10;;;;;;;-1.64;51.63;99564.63;5066089;28;20032;-68
2022/01/31 05:14:22;;;;;;;2.95;1.08;;;;;;;-1.65;51.68;99562.91;5065929;28;20664;-69
2022/01/31 05:16:48;;;;;;;5.88;1.20;;;;;;;-1.63;51.78;99566.38;5065922;28;20040;-68
2022/01/31 05:19:13;;;;;;;1.30;1.15;;;;;;;-1.67;52.20;99564.56;5065429;28;20105;-69
2022/01/31 05:21:38;;;;;;;1.65;1.02;;;;;;;-1.70;52.11;99549.19;5065424;28;20024;-69
2022/01/31 05:24:04;;;;;;;3.97;1.17;;;;;;;-1.70;51.99;99555.16;5047048;28;20461;-70
2022/01/31 05:26:30;;;;;;;4.63;1.00;;;;;;;-1.83;51.92;99538.69;5064866;28;20029;-68
2022/01/31 05:28:56;;;;;;;3.15;1.00;;;;;;;-1.72;52.27;99550.81;5065693;28;20059;-64
2022/01/31 05:31:21;;;;;;;2.15;1.20;;;;;;;-1.75;52.31;99547.41;5065352;28;20037;-69
2022/01/31 05:33:47;;;;;;;4.45;1.38;;;;;;;-1.84;52.18;99543.72;5065191;28;20024;-69
2022/01/31 05:36:12;;;;;;;1.77;0.82;;;;;;;-1.76;52.36;99555.84;5065457;28;20047;-68
2022/01/31 05:38:38;;;;;;;4.63;1.40;;;;;;;-1.77;52.54;99556.66;5064750;28;20084;-69
2022/01/31 05:41:07;;;;;;;4.63;1.35;;;;;;;-1.75;52.73;99546.53;5065038;28;20061;-70
2022/01/31 05:43:32;;;;;;;5.05;1.45;;;;;;;-1.79;52.61;99545.56;5065342;28;20021;-69
2022/01/31 05:45:58;;;;;;;2.30;1.08;;;;;;;-1.78;52.51;99554.94;5047139;28;20025;-70
2022/01/31 05:48:23;;;;;;;5.15;1.40;;;;;;;-1.89;52.46;99536.84;5065214;28;20032;-70
2022/01/31 05:50:49;;;;;;;3.30;0.95;;;;;;;-1.95;52.87;99531.56;5065195;28;20028;-70
2022/01/31 05:53:14;;;;;;;3.00;1.17;;;;;;;-1.87;52.61;99540.28;5065135;28;20021;-70
2022/01/31 05:55:40;;;;;;;5.30;1.30;;;;;;;-1.88;53.01;99546.19;5065268;28;20384;-70
2022/01/31 05:58:06;;;;;;;3.78;1.05;;;;;;;-1.89;53.21;99548.69;5065172;28;20188;-71
2022/01/31 06:00:32;;;;;;;3.67;1.60;;;;;;;-2.01;53.31;99532.25;5065101;28;20021;-70
2022/01/31 06:02:58;;;;;;;3.97;1.20;;;;;;;-1.95;53.66;99549.34;5065293;28;20027;-71
2022/01/31 06:05:26;;;;;;;4.40;1.35;;;;;;;-2.04;53.70;99544.88;5065300;28;20033;-70
2022/01/31 06:07:51;;;;;;;2.40;1.17;;;;;;;-1.97;53.71;99560.31;5065219;28;20505;-71
2022/01/31 06:10:17;;;;;;;6.20;1.52;;;;;;;-2.05;53.92;99539.75;5064691;28;20025;-71
2022/01/31 06:12:42;;;;;;;3.88;1.30;;;;;;;-2.02;54.18;99555.09;5047005;28;20025;-71
2022/01/31 06:15:08;;;;;;;3.13;0.80;;;;;;;-2.05;54.01;99550.81;5064918;28;20058;-70
2022/01/31 06:17:34;;;;;;;1.40;1.23;;;;;;;-2.13;54.21;99531.91;5046870;28;20029;-70
2022/01/31 06:19:59;;;;;;;3.70;1.58;;;;;;;-2.04;54.37;99557.59;5064856;28;20082;-69
2022/01/31 06:22:25;;;;;;;2.25;1.15;;;;;;;-2.09;54.35;99554.06;5064887;28;20079;-69
2022/01/31 06:24:50;;;;;;;5.90;1.65;;;;;;;-2.22;54.46;99537.56;5064716;28;20397;-70
2022/01/31 06:27:16;;;;;;;3.22;0.90;;;;;;;-2.19;54.50;99542.75;5064631;28;20025;-69
2022/01/31 06:29:42;;;;;;;3.63;1.85;;;;;;;-2.15;54.74;99546.25;5046499;28;20088;-69
2022/01/31 06:32:08;;;;;;;3.17;1.10;;;;;;;-2.18;54.62;99546.16;5064604;28;20051;-69
2022/01/31 06:34:33;;;;;;;4.70;1.25;;;;;;;-2.19;54.86;99541.91;5064733;28;20768;-70
2022/01/31 06:37:02;;;;;;;3.35;1.05;;;;;;;-2.22;54.95;99541.81;5063772;28;20049;-70
2022/01/31 06:39:28;;;;;;;5.85;1.27;;;;;;;-2.24;55.12;99545.16;5063948;28;20073;-70
2022/01/31 06:41:54;;;;;;;6.57;1.50;;;;;;;-2.29;55.27;99531.47;5064382;28;20017;-70
2022/01/31 06:44:19;;;;;;;4.85;1.33;;;;;;;-2.30;55.28;99536.50;5064268;28;20021;-70
2022/01/31 06:46:45;;;;;;;5.55;1.48;;;;;;;-2.30;55.33;99537.34;5064371;28;20032;-70
2022/01/31 06:49:10;;;;;;;3.92;1.55;;;;;;;-2.34;55.31;99535.53;5064503;28;20024;-70
2022/01/31 06:51:35;;;;;;;4.05;1.50;;;;;;;-2.35;55.39;99533.81;5064046;28;20035;-70
2022/01/31 06:54:01;;;;;;;8.65;1.85;;;;;;;-2.41;55.29;99538.72;5064139;28;20045;-69
2022/01/31 06:56:33;;;;;;;2.60;1.20;;;;;;;-2.39;55.79;99545.56;5064207;28;20040;-69
2022/01/31 06:58:59;;;;;;;6.72;2.55;;;;;;;-2.41;55.77;99538.72;5046141;28;20025;-69
2022/01/31 07:01:25;;;;;;;4.55;1.20;;;;;;;-2.50;56.10;99531.66;5063929;28;20056;-70
2022/01/31 07:03:53;;;;;;;4.15;1.70;;;;;;;-2.54;56.14;99530.69;5063989;28;20021;-70
2022/01/31 07:06:20;;;;;;;1.45;1.05;;;;;;;-2.46;56.00;99542.81;5063796;28;20016;-70
2022/01/31 07:08:46;;;;;;;9.35;2.10;;;;;;;-2.54;56.21;99533.25;5063813;28;20035;-70
2022/01/31 07:11:16;;;;;;;2.88;1.30;;;;;;;-2.48;56.45;99552.91;5063662;28;20027;-70
2022/01/31 07:13:43;;;;;;;3.88;1.13;;;;;;;-2.49;56.58;99554.59;5045776;28;20021;-70
2022/01/31 07:16:09;;;;;;;5.40;2.00;;;;;;;-2.52;56.72;99556.16;5063707;28;20040;-70
2022/01/31 07:18:36;;;;;;;5.38;1.70;;;;;;;-2.62;56.43;99545.72;5063722;28;20105;-71
2022/01/31 07:21:02;;;;;;;5.32;1.50;;;;;;;-2.52;56.60;99562.13;5063596;28;20112;-70
2022/01/31 07:23:38;;;;;;;4.20;1.25;;;;;;;-2.53;56.60;99562.06;5063547;28;20064;-70
2022/01/31 07:26:04;;;;;;;3.63;1.80;;;;;;;-2.53;56.56;99572.25;5063921;28;20028;-70
2022/01/31 07:28:29;;;;;;;4.82;1.23;;;;;;;-2.60;56.52;99562.72;5063368;28;20025;-70
2022/01/31 07:30:56;;;;;;;6.65;1.25;;;;;;;-2.53;56.65;99567.16;5063317;28;20021;-70
2022/01/31 07:33:22;;;;;;;4.00;1.70;;;;;;;-2.62;56.51;99560.13;5063449;28;20025;-70
2022/01/31 07:35:50;;;;;;;3.10;1.42;;;;;;;-2.52;56.55;99573.97;5063363;28;20055;-69
2022/01/31 07:38:17;;;;;;;5.32;1.10;;;;;;;-2.51;56.69;99557.91;5062851;28;20041;-70
2022/01/31 07:40:43;;;;;;;5.57;1.40;;;;;;;-2.54;56.87;99550.19;5063262;28;20036;-70
2022/01/31 07:43:09;;;;;;;5.32;1.88;;;;;;;-2.63;56.67;99541.47;5045376;28;20048;-69
2022/01/31 07:45:34;;;;;;;4.28;1.70;;;;;;;-2.51;56.76;99565.53;5063023;28;20028;-69
2022/01/31 07:48:00;;;;;;;6.13;1.25;;;;;;;-2.54;56.86;99561.19;5062587;28;20060;-69
2022/01/31 07:50:25;;;;;;;5.22;1.20;;;;;;;-2.51;57.00;99568.91;5063062;28;20025;-69
2022/01/31 07:52:51;;;;;;;1.70;1.10;;;;;;;-2.49;57.09;99574.06;5063027;28;20025;-69
2022/01/31 07:55:17;;;;;;;5.55;1.48;;;;;;;-2.47;57.19;99574.97;5045136;28;20437;-69
2022/01/31 07:57:45;;;;;;;4.82;1.90;;;;;;;-2.40;57.24;99570.94;5063020;28;20024;-69
2022/01/31 08:00:11;;;;;;;5.53;1.70;;;;;;;-2.31;57.12;99558.50;5045134;28;20506;-69
2022/01/31 08:02:36;;;;;;;3.25;1.33;;;;;;;-1.96;57.11;99569.66;5063424;28;20078;-69
2022/01/31 08:05:02;;;;;;;6.47;1.50;;;;;;;-1.68;56.70;99571.34;5063409;28;20486;-69
2022/01/31 08:07:27;;;;;;;4.18;1.30;;;;;;;-1.40;56.33;99582.28;5063327;28;20081;-69
2022/01/31 08:09:52;;;;;;;6.07;1.27;;;;;;;-1.30;55.86;99567.25;5063021;28;20024;-69
2022/01/31 08:12:18;;;;;;;10.40;1.45;;;;;;;-1.02;55.60;99580.69;5063394;28;20322;-70
2022/01/31 08:14:44;;;;;;;34.30;5.32;;;;;;;-0.59;55.54;99578.31;5063288;28;20025;-70
2022/01/31 08:17:10;;;;;;;3.15;1.88;;;;;;;-0.26;54.48;99551.84;5063327;28;20025;-71
2022/01/31 08:19:35;;;;;;;4.38;1.55;;;;;;;0.21;53.65;99568.16;5045018;28;20527;-70
2022/01/31 08:22:01;;;;;;;2.78;1.30;;;;;;;0.53;53.37;99556.00;5063311;28;20032;-70
2022/01/31 08:24:26;;;;;;;6.60;1.65;;;;;;;0.94;52.34;99558.41;5063077;28;20055;-70
2022/01/31 08:26:52;;;;;;;3.40;1.83;;;;;;;1.10;51.71;99562.09;5045238;28;20025;-69
2022/01/31 08:31:48;;;;;;;4.25;1.23;;;;;;;1.20;50.98;99545.22;5062985;28;20025;-70
2022/01/31 08:36:43;;;;;;;3.55;1.40;;;;;;;0.92;51.40;99544.78;5063207;28;20032;-70
2022/01/31 08:39:20;;;;;;;7.68;2.03;;;;;;;0.80;51.71;99547.13;5063078;28;20029;-70
2022/01/31 08:41:49;;;;;;;2.38;1.27;;;;;;;0.90;51.50;99558.34;5063067;28;20025;-69
2022/01/31 08:44:17;;;;;;;6.40;1.60;;;;;;;1.12;51.72;99567.22;5044981;28;20025;-70
2022/01/31 08:46:45;;;;;;;4.13;1.20;;;;;;;1.19;51.08;99553.72;5062887;28;20029;-70
2022/01/31 08:49:13;;;;;;;1.95;1.08;;;;;;;1.07;51.25;99563.75;5044814;28;20053;-69
2022/01/31 08:51:38;;;;;;;11.50;1.50;;;;;;;0.96;51.27;99561.88;5062679;28;20029;-70
2022/01/31 08:54:07;;;;;;;2.15;1.17;;;;;;;1.39;51.18;99578.75;5062590;28;20102;-69
2022/01/31 08:56:40;;;;;;;2.78;1.30;;;;;;;1.83;50.54;99574.28;5062946;28;20064;-70
2022/01/31 08:59:07;;;;;;;4.25;1.45;;;;;;;1.78;50.19;99563.97;5045654;28;20028;-70
2022/01/31 09:01:33;;;;;;;4.10;1.27;;;;;;;2.10;50.41;99576.34;5048229;28;20025;-68
2022/01/31 09:04:03;;;;;;;5.18;2.30;;;;;;;2.90;50.49;99576.34;5066161;28;20505;-69
2022/01/31 09:06:31;;;;;;;4.32;1.20;;;;;;;3.76;49.23;99569.31;5048220;28;20026;-69
2022/01/31 09:08:57;;;;;;;7.32;1.40;;;;;;;4.64;48.71;99575.66;5065954;28;20017;-70
2022/01/31 09:11:24;;;;;;;3.50;1.60;;;;;;;5.43;46.54;99574.91;5047712;28;20210;-69
2022/01/31 09:13:51;;;;;;;2.55;1.10;;;;;;;5.74;45.75;99571.41;5065808;28;20035;-69
2022/01/31 09:16:16;;;;;;;5.30;1.67;;;;;;;5.88;45.66;99574.81;5065826;28;20025;-70
2022/01/31 09:18:42;;;;;;;5.72;1.25;;;;;;;6.11;44.49;99555.03;5065776;28;20033;-70
2022/01/31 09:21:07;;;;;;;4.22;1.20;;;;;;;6.23;42.73;99564.44;5065720;28;20054;-70
2022/01/31 09:23:33;;;;;;;6.57;1.60;;;;;;;6.05;42.05;99573.94;5065495;28;20576;-69
2022/01/31 09:25:58;;;;;;;8.40;1.92;;;;;;;5.70;42.71;99573.16;5065775;28;20017;-70
2022/01/31 09:28:25;;;;;;;9.05;1.73;;;;;;;5.53;42.61;99581.75;5065821;28;20079;-70
2022/01/31 09:30:52;;;;;;;4.00;1.45;;;;;;;5.47;42.78;99576.59;5065618;28;20049;-70
2022/01/31 09:33:18;;;;;;;5.15;1.27;;;;;;;5.44;42.23;99582.63;5065647;28;20269;-70
2022/01/31 09:35:44;;;;;;;7.65;1.48;;;;;;;5.30;43.21;99586.91;5065912;28;20031;-70
2022/01/31 09:38:13;;;;;;;6.93;1.75;;;;;;;5.53;43.17;99599.75;5065418;28;20417;-70
2022/01/31 09:40:38;;;;;;;3.67;1.35;;;;;;;5.60;42.60;99590.31;5065380;28;20017;-70
2022/01/31 09:43:39;;;;;;;3.03;1.02;;;;;;;5.43;41.44;99595.50;5065588;28;20170;-70
2022/01/31 09:48:35;;;;;;;6.38;1.95;;;;;;;4.84;41.22;99597.16;5065597;28;20024;-70
2022/01/31 09:51:15;;;;;;;5.88;1.50;;;;;;;4.72;42.00;99594.56;5065377;28;20032;-70
2022/01/31 09:53:49;;;;;;;4.80;1.40;;;;;;;4.83;42.94;99592.00;5065143;28;20024;-71
2022/01/31 09:56:21;;;;;;;3.17;1.52;;;;;;;5.16;42.18;99585.19;5065075;28;20017;-69
2022/01/31 09:58:49;;;;;;;2.85;1.20;;;;;;;5.41;42.44;99598.06;5065117;28;20029;-71
2022/01/31 10:01:17;;;;;;;4.15;1.23;;;;;;;5.54;42.49;99592.91;5065232;28;20039;-69
2022/01/31 10:03:50;;;;;;;3.00;1.40;;;;;;;5.45;41.31;99601.47;5065215;28;20095;-69
2022/01/31 10:06:22;;;;;;;3.95;1.10;;;;;;;5.00;41.87;99612.59;5065141;28;20021;-70
2022/01/31 10:09:04;;;;;;;4.43;1.70;;;;;;;4.75;42.60;99609.13;5046694;28;20366;-70
2022/01/31 10:11:38;;;;;;;5.47;1.70;;;;;;;4.78;42.28;99614.28;5064028;28;20052;-69
2022/01/31 10:17:20;;;;;;;4.57;1.30;;;;;;;5.05;42.56;99597.16;5065105;28;20039;-71
2022/01/31 10:19:46;;;;;;;2.50;1.48;;;;;;;5.21;41.83;99605.78;5064438;28;20040;-70
2022/01/31 10:22:14;;;;;;;5.55;1.23;;;;;;;5.08;42.14;99600.63;5064794;28;20048;-70
2022/01/31 10:24:43;;;;;;;6.43;1.67;;;;;;;5.07;41.74;99622.06;5064709;28;20053;-69
2022/01/31 10:27:12;;;;;;;3.90;1.17;;;;;;;4.95;42.14;99615.16;5064666;28;20052;-70
2022/01/31 10:29:38;;;;;;;4.50;1.30;;;;;;;5.03;42.23;99627.22;5064611;28;20136;-70
2022/01/31 10:32:07;;;;;;;5.30;1.42;;;;;;;5.18;41.84;99627.22;5046191;28;20084;-70
2022/01/31 10:34:39;;;;;;;4.35;1.45;;;;;;;5.10;41.39;99620.38;5064430;28;20025;-70
2022/01/31 10:37:10;;;;;;;4.28;1.33;;;;;;;4.90;41.67;99623.75;5064158;28;20037;-70
2022/01/31 10:53:10;;;;;;;2.90;1.23;;;;;;;4.42;43.45;99627.03;5064376;28;20025;-71
2022/01/31 10:55:35;;;;;;;4.13;1.08;;;;;;;4.36;43.15;99624.44;5064198;28;20029;-70
2022/01/31 10:58:07;;;;;;;6.22;1.30;;;;;;;4.27;43.14;99638.94;5046126;28;20021;-70
2022/01/31 11:00:38;;;;;;;5.00;1.58;;;;;;;4.06;43.36;99640.53;5064100;28;20053;-69
2022/01/31 11:03:32;;;;;;;5.68;1.75;;;;;;;3.97;43.27;99643.94;5064153;28;20033;-70
2022/01/31 11:06:04;;;;;;;4.43;1.40;;;;;;;3.86;43.25;99640.44;5064117;28;20017;-70
2022/01/31 11:08:32;;;;;;;;;;;;;;;3.75;43.48;99642.06;5064366;28;20028;-70
2022/01/31 11:10:59;;;;;;;6.78;1.50;;;;;;;3.68;43.44;99624.03;5045983;28;19908;-70
2022/01/31 11:13:26;;;;;;;4.97;1.30;;;;;;;3.66;43.49;99641.13;5063868;28;20025;-70
2022/01/31 11:15:54;;;;;;;7.97;2.42;;;;;;;3.70;43.72;99642.88;5063917;28;20032;-70
2022/01/31 11:18:22;;;;;;;9.05;2.05;;;;;;;3.78;43.46;99640.38;5063876;28;20028;-70
2022/01/31 11:20:49;;;;;;;8.50;2.53;;;;;;;3.87;43.31;99644.69;5063846;28;20025;-70
2022/01/31 11:23:17;;;;;;;8.23;2.30;;;;;;;3.93;43.10;99652.44;5062979;28;20025;-70
2022/01/31 11:25:47;;;;;;;12.73;2.67;;;;;;;4.05;43.30;99653.38;5063547;28;20025;-70
2022/01/31 11:28:14;;;;;;;21.30;2.70;;;;;;;4.22;42.97;99636.34;5063734;28;20042;-70
2022/01/31 11:30:41;;;;;;;11.93;2.75;;;;;;;4.61;42.76;99643.38;5063682;28;20020;-70
2022/01/31 11:33:07;;;;;;;16.63;2.80;;;;;;;4.90;42.49;99644.31;5063615;28;20108;-70
2022/01/31 11:35:33;;;;;;;9.45;2.05;;;;;;;4.99;41.83;99648.63;5063668;28;20017;-70
2022/01/31 11:37:58;;;;;;;10.18;2.22;;;;;;;4.72;41.90;99630.56;5063185;28;20051;-70
2022/01/31 11:40:24;;;;;;;10.52;2.10;;;;;;;4.41;42.22;99649.28;5063120;28;20017;-70
2022/01/31 11:42:51;;;;;;;11.25;2.13;;;;;;;4.08;43.00;99653.41;5063218;28;20097;-69
2022/01/31 11:45:32;;;;;;;15.35;2.50;;;;;;;3.68;43.44;99659.97;5063225;28;20080;-71
2022/01/31 11:48:04;;;;;;;8.38;2.53;;;;;;;3.22;44.36;99645.91;5045332;28;20529;-70
2022/01/31 11:50:30;;;;;;;5.88;2.08;;;;;;;3.07;44.82;99646.63;5063427;28;20021;-73
2022/01/31 11:53:00;;;;;;;5.88;2.30;;;;;;;2.91;44.67;99649.84;5063466;28;20013;-70
2022/01/31 11:55:33;;;;;;;9.32;1.98;;;;;;;2.53;44.88;99646.00;5063167;28;20033;-69
2022/01/31 11:57:59;;;;;;;10.88;2.45;;;;;;;2.19;45.61;99651.59;5063163;28;20025;-69
2022/01/31 12:00:28;;;;;;;14.27;2.50;;;;;;;2.07;46.16;99653.13;5062970;28;20055;-70
2022/01/31 12:03:00;;;;;;;12.52;1.98;;;;;;;1.91;46.28;99646.91;5063255;28;20025;-70